Time;durP1;ratioP1;P1;durP2;ratioP2;P2;SDS_P1;SDS_P2;PMS_P1;PMS_P2;Temp;Humidity;BMP_temperature;BMP_pressure;BME280_temperature;BME280_humidity;BME280_pressure;Samples;Min_cycle;Max_cycle;Signal;HPM_P1;HPM_P2
2022/10/21 00:00:52;;;;;;;;;;;11.30;99.90;;;;;;6330448;22;19976;-48
2022/10/21 00:03:18;;;;;;;;;;;11.30;99.90;;;;;;6329843;22;20123;-46
2022/10/21 00:05:44;;;;;;;;;;;11.20;99.90;;;;;;6329853;22;19922;-47
2022/10/21 00:08:09;;;;;;;;;;;11.30;99.90;;;;;;6330363;22;19949;-48
2022/10/21 00:10:35;;;;;;;;;;;11.20;99.90;;;;;;6330740;22;19915;-49
2022/10/21 00:13:01;;;;;;;;;;;10.90;99.90;;;;;;6330938;22;19949;-47
2022/10/21 00:15:27;;;;;;;;;;;11.20;99.90;;;;;;6330034;22;19919;-46
2022/10/21 00:17:52;;;;;;;;;;;11.20;99.90;;;;;;6330803;22;20589;-47
2022/10/21 00:20:18;;;;;;;;;;;11.20;99.90;;;;;;6330662;22;19923;-47
2022/10/21 00:22:44;;;;;;;;;;;11.30;99.90;;;;;;6330564;22;19993;-48
2022/10/21 00:25:10;;;;;;;;;;;11.10;99.90;;;;;;6330822;22;19919;-47
2022/10/21 00:27:36;;;;;;;;;;;11.20;99.90;;;;;;6330858;22;19946;-48
2022/10/21 00:30:02;;;;;;;;;;;11.20;99.90;;;;;;6330674;22;20214;-47
2022/10/21 00:32:28;;;;;;;;;;;11.20;99.90;;;;;;6330873;22;19918;-47
2022/10/21 00:34:53;;;;;;;;;;;11.20;99.90;;;;;;6302941;22;20003;-47
2022/10/21 00:37:19;;;;;;;;;;;11.30;99.90;;;;;;6330860;22;19918;-46
2022/10/21 00:39:45;;;;;;;;;;;11.20;99.90;;;;;;6330373;22;19914;-47
2022/10/21 00:42:19;;;;;;;;;;;11.20;99.90;;;;;;6303186;22;19934;-46
2022/10/21 00:45:01;;;;;;;;;;;11.30;99.90;;;;;;6330603;22;19918;-47
2022/10/21 00:47:27;;;;;;;;;;;11.30;99.90;;;;;;6330481;22;20334;-47
2022/10/21 00:49:55;;;;;;;;;;;11.30;99.90;;;;;;6330564;22;20001;-47
2022/10/21 00:52:22;;;;;;;;;;;11.40;99.90;;;;;;6330769;22;20299;-47
2022/10/21 00:54:48;;;;;;;;;;;11.30;99.90;;;;;;6330416;22;19918;-47
2022/10/21 00:57:14;;;;;;;;;;;11.30;99.90;;;;;;6330406;22;20016;-48
2022/10/21 00:59:43;;;;;;;;;;;11.30;99.90;;;;;;6329833;22;19918;-46
2022/10/21 01:02:09;;;;;;;;;;;11.30;99.90;;;;;;6330540;22;19918;-47
2022/10/21 01:04:34;;;;;;;;;;;11.30;99.90;;;;;;6329603;22;19954;-49
2022/10/21 01:07:01;;;;;;;;;;;11.30;99.90;;;;;;6329389;22;19914;-48
2022/10/21 01:09:27;;;;;;;;;;;11.30;99.90;;;;;;6329750;22;20366;-47
2022/10/21 01:11:53;;;;;;;;;;;11.30;99.90;;;;;;6329871;22;19914;-47
2022/10/21 01:14:38;;;;;;;;;;;11.40;99.90;;;;;;6328531;22;19977;-47
2022/10/21 01:17:14;;;;;;;;;;;11.30;99.90;;;;;;6301101;22;19957;-46
2022/10/21 01:19:56;;;;;;;;;;;11.20;99.90;;;;;;6328996;22;20060;-46
2022/10/21 01:22:33;;;;;;;;;;;11.20;99.90;;;;;;6330246;22;19930;-47
2022/10/21 01:25:23;;;;;;;;;;;11.20;99.90;;;;;;6328788;22;19943;-48
2022/10/21 01:28:06;;;;;;;;;;;11.20;99.90;;;;;;6302489;22;19919;-46
2022/10/21 01:30:36;;;;;;;;;;;11.20;99.90;;;;;;6302485;22;19941;-47
2022/10/21 01:33:08;;;;;;;;;;;11.20;99.90;;;;;;6330317;22;19937;-46
2022/10/21 01:35:41;;;;;;;;;;;11.10;99.90;;;;;;6330098;22;19918;-46
2022/10/21 01:38:07;;;;;;;;;;;11.20;99.90;;;;;;6330562;22;19919;-48
2022/10/21 01:40:51;;;;;;;;;;;11.10;99.90;;;;;;6328777;22;19921;-47
2022/10/21 01:43:30;;;;;;;;;;;11.10;99.90;;;;;;6330382;22;19994;-46
2022/10/21 01:46:01;;;;;;;;;;;11.10;99.90;;;;;;6330076;22;20018;-48
2022/10/21 01:48:28;;;;;;;;;;;11.10;99.90;;;;;;6330284;22;20332;-47
2022/10/21 01:50:57;;;;;;;;;;;11.00;99.90;;;;;;6330418;22;20397;-47
2022/10/21 01:53:26;;;;;;;;;;;11.10;99.90;;;;;;6331899;22;19929;-48
2022/10/21 01:55:54;;;;;;;;;;;10.90;99.90;;;;;;6331572;22;19933;-46
2022/10/21 01:58:22;;;;;;;;;;;10.90;99.90;;;;;;6331943;22;19929;-46
2022/10/21 02:00:49;;;;;;;;;;;10.80;99.90;;;;;;6331746;22;19918;-46
2022/10/21 02:03:16;;;;;;;;;;;10.90;99.90;;;;;;6331936;22;20025;-46
2022/10/21 02:08:52;;;;;;;;;;;10.90;99.90;;;;;;6301122;22;19948;-46
2022/10/21 02:11:18;;;;;;;;;;;11.00;99.90;;;;;;6302690;22;19919;-47
2022/10/21 02:13:59;;;;;;;;;;;10.60;99.90;;;;;;6331346;22;19915;-47
2022/10/21 02:16:27;;;;;;;;;;;10.90;99.90;;;;;;6331528;22;19997;-48
2022/10/21 02:18:54;;;;;;;;;;;10.90;99.90;;;;;;6331386;22;20660;-47
2022/10/21 02:21:20;;;;;;;;;;;11.00;99.90;;;;;;6331770;22;19994;-46
2022/10/21 02:23:54;;;;;;;;;;;10.90;99.90;;;;;;6330756;22;19915;-47
2022/10/21 02:26:21;;;;;;;;;;;11.00;99.90;;;;;;6331351;22;20002;-47
2022/10/21 02:28:47;;;;;;;;;;;11.00;99.90;;;;;;6331379;22;19919;-46
2022/10/21 02:31:18;;;;;;;;;;;11.10;99.90;;;;;;6331277;22;20059;-48
2022/10/21 02:33:43;;;;;;;;;;;11.10;99.90;;;;;;6331471;22;19918;-48
2022/10/21 02:36:21;;;;;;;;;;;11.10;99.90;;;;;;6331591;22;20005;-47
2022/10/21 02:38:49;;;;;;;;;;;11.20;99.90;;;;;;6331407;22;19985;-46
2022/10/21 02:41:17;;;;;;;;;;;11.20;99.90;;;;;;6331467;22;19925;-48
2022/10/21 02:44:01;;;;;;;;;;;11.30;99.90;;;;;;6331420;22;19918;-48
2022/10/21 02:46:35;;;;;;;;;;;11.30;99.90;;;;;;6331300;22;19918;-48
2022/10/21 02:49:01;;;;;;;;;;;11.30;99.90;;;;;;6331307;22;19942;-46
2022/10/21 02:51:27;;;;;;;;;;;11.30;99.90;;;;;;6331397;22;20388;-47
2022/10/21 02:53:52;;;;;;;;;;;11.50;99.90;;;;;;6303499;22;19914;-47
2022/10/21 02:56:18;;;;;;;;;;;11.50;99.90;;;;;;6331053;22;19983;-47
2022/10/21 02:58:44;;;;;;;;;;;11.40;99.90;;;;;;6331027;22;20222;-50
2022/10/21 03:01:09;;;;;;;;;;;11.60;99.90;;;;;;6330949;22;20477;-47
2022/10/21 03:03:35;;;;;;;;;;;11.50;99.90;;;;;;6331614;22;20014;-48
2022/10/21 03:06:01;;;;;;;;;;;11.60;99.90;;;;;;6302291;22;19918;-47
2022/10/21 03:08:27;;;;;;;;;;;11.50;99.90;;;;;;6330272;22;20394;-47
2022/10/21 03:10:53;;;;;;;;;;;11.50;99.90;;;;;;6330004;22;19918;-46
2022/10/21 03:13:18;;;;;;;;;;;11.70;99.90;;;;;;6330593;22;19918;-45
2022/10/21 03:15:44;;;;;;;;;;;11.70;99.90;;;;;;6328624;22;20390;-47
2022/10/21 03:18:10;;;;;;;;;;;11.70;99.90;;;;;;6303030;22;19914;-46
2022/10/21 03:20:36;;;;;;;;;;;11.60;99.90;;;;;;6330207;22;19915;-46
2022/10/21 03:23:01;;;;;;;;;;;11.80;99.90;;;;;;6330738;22;19921;-46
2022/10/21 03:25:27;;;;;;;;;;;11.60;99.90;;;;;;6304437;22;19928;-45
2022/10/21 03:27:53;;;;;;;;;;;11.80;99.90;;;;;;6332753;22;19919;-45
2022/10/21 03:30:18;;;;;;;;;;;11.70;99.90;;;;;;6332223;22;20007;-46
2022/10/21 03:32:44;;;;;;;;;;;11.80;99.90;;;;;;6332017;22;20366;-47
2022/10/21 03:35:10;;;;;;;;;;;11.80;99.90;;;;;;6332362;22;19922;-46
2022/10/21 03:37:35;;;;;;;;;;;11.70;99.90;;;;;;6304663;22;19976;-46
2022/10/21 03:40:01;;;;;;;;;;;11.90;99.90;;;;;;6331884;22;19925;-45
2022/10/21 03:42:28;;;;;;;;;;;11.80;99.90;;;;;;6304197;22;19919;-45
2022/10/21 03:44:53;;;;;;;;;;;11.90;99.90;;;;;;6331803;22;19949;-45
2022/10/21 03:47:19;;;;;;;;;;;11.90;99.90;;;;;;6331270;22;20399;-46
2022/10/21 03:49:45;;;;;;;;;;;11.80;99.90;;;;;;6303524;22;19922;-47
2022/10/21 03:52:11;;;;;;;;;;;11.80;99.90;;;;;;6303684;22;19918;-44
2022/10/21 03:54:36;;;;;;;;;;;11.80;99.90;;;;;;6331277;22;19925;-45
2022/10/21 03:57:02;;;;;;;;;;;11.70;99.90;;;;;;6330432;22;19918;-44
2022/10/21 03:59:28;;;;;;;;;;;11.70;99.90;;;;;;6330428;22;19926;-47
2022/10/21 04:01:54;;;;;;;;;;;11.60;99.90;;;;;;6331395;22;19925;-46
2022/10/21 04:04:19;;;;;;;;;;;11.60;99.90;;;;;;6331749;22;19982;-45
2022/10/21 04:06:45;;;;;;;;;;;11.60;99.90;;;;;;6331579;22;19942;-45
2022/10/21 04:09:10;;;;;;;;;;;11.70;99.90;;;;;;6303012;22;19925;-46
2022/10/21 04:11:36;;;;;;;;;;;11.80;99.90;;;;;;6277164;22;20001;-45
2022/10/21 04:14:02;;;;;;;;;;;11.80;99.90;;;;;;6329934;22;19922;-45
2022/10/21 04:16:28;;;;;;;;;;;11.60;99.90;;;;;;6330785;22;19926;-45
2022/10/21 04:18:53;;;;;;;;;;;11.60;99.90;;;;;;6331088;22;20339;-46
2022/10/21 04:21:19;;;;;;;;;;;11.60;99.90;;;;;;6331824;22;20641;-44
2022/10/21 04:23:45;;;;;;;;;;;11.80;99.90;;;;;;6331820;22;19940;-45
2022/10/21 04:26:11;;;;;;;;;;;11.80;99.90;;;;;;6331404;22;19922;-46
2022/10/21 04:28:36;;;;;;;;;;;11.60;99.90;;;;;;6331327;22;20443;-46
2022/10/21 04:31:03;;;;;;;;;;;11.70;99.90;;;;;;6331209;22;19925;-46
2022/10/21 04:33:28;;;;;;;;;;;11.70;99.90;;;;;;6331068;22;19922;-46
2022/10/21 04:35:55;;;;;;;;;;;11.80;99.90;;;;;;6303702;22;19922;-45
2022/10/21 04:38:21;;;;;;;;;;;11.80;99.90;;;;;;6331437;22;19914;-46
2022/10/21 04:40:53;;;;;;;;;;;11.70;99.90;;;;;;6331228;22;19957;-46
2022/10/21 04:43:19;;;;;;;;;;;11.80;99.90;;;;;;6303571;22;19914;-45
2022/10/21 04:45:45;;;;;;;;;;;11.80;99.90;;;;;;6330962;22;19918;-46
2022/10/21 04:48:12;;;;;;;;;;;;;;;;;;6330081;22;19914;-45
2022/10/21 04:50:38;;;;;;;;;;;12.00;99.90;;;;;;6329790;22;20524;-45
2022/10/21 04:53:04;;;;;;;;;;;11.90;99.90;;;;;;6330296;22;19915;-45
2022/10/21 04:55:29;;;;;;;;;;;11.90;99.90;;;;;;6329013;22;20007;-45
2022/10/21 04:57:55;;;;;;;;;;;12.00;99.90;;;;;;6330713;22;19914;-46
2022/10/21 05:00:21;;;;;;;;;;;12.00;99.90;;;;;;6328887;22;19979;-46
2022/10/21 05:02:47;;;;;;;;;;;12.10;99.90;;;;;;6329520;22;19921;-45
2022/10/21 05:05:12;;;;;;;;;;;12.00;99.90;;;;;;6329266;22;19921;-45
2022/10/21 05:07:38;;;;;;;;;;;12.10;99.90;;;;;;6328921;22;20016;-46
2022/10/21 05:10:04;;;;;;;;;;;12.00;99.90;;;;;;6330008;22;19965;-46
2022/10/21 05:12:30;;;;;;;;;;;12.00;99.90;;;;;;6331021;22;19946;-46
2022/10/21 05:14:56;;;;;;;;;;;12.10;99.90;;;;;;6325147;22;20581;-46
2022/10/21 05:17:21;;;;;;;;;;;12.00;99.90;;;;;;6302245;22;20259;-46
2022/10/21 05:19:47;;;;;;;;;;;11.90;99.90;;;;;;6301630;22;19942;-45
2022/10/21 05:22:13;;;;;;;;;;;11.90;99.90;;;;;;6329748;22;19915;-46
2022/10/21 05:24:39;;;;;;;;;;;11.90;99.90;;;;;;6330800;22;20462;-47
2022/10/21 05:27:05;;;;;;;;;;;12.10;99.90;;;;;;6332238;22;20051;-46
2022/10/21 05:29:30;;;;;;;;;;;12.10;99.90;;;;;;6304489;22;20253;-46
2022/10/21 05:31:56;;;;;;;;;;;12.00;99.90;;;;;;6332303;22;19949;-46
2022/10/21 05:34:22;;;;;;;;;;;12.00;99.90;;;;;;6303960;22;19921;-46
2022/10/21 05:36:48;;;;;;;;;;;11.90;99.90;;;;;;6331181;22;20225;-46
2022/10/21 05:39:13;;;;;;;;;;;12.10;99.90;;;;;;6331895;22;20369;-46
2022/10/21 05:41:39;;;;;;;;;;;12.10;99.90;;;;;;6331409;22;19980;-46
2022/10/21 05:44:05;;;;;;;;;;;12.20;99.90;;;;;;6304656;22;20194;-46
2022/10/21 05:46:30;;;;;;;;;;;12.10;99.90;;;;;;6303983;22;19914;-46
2022/10/21 05:48:56;;;;;;;;;;;12.30;99.90;;;;;;6330865;22;19915;-47
2022/10/21 05:51:25;;;;;;;;;;;12.00;99.90;;;;;;6330672;22;20043;-46
2022/10/21 05:53:54;;;;;;;;;;;12.00;99.90;;;;;;6330726;22;19968;-44
2022/10/21 05:56:20;;;;;;;;;;;12.20;99.90;;;;;;6303243;22;19918;-45
2022/10/21 05:58:46;;;;;;;;;;;12.10;99.90;;;;;;6303081;22;20000;-47
2022/10/21 06:01:12;;;;;;;;;;;12.00;99.90;;;;;;6301925;22;19918;-47
2022/10/21 06:03:38;;;;;;;;;;;12.10;99.90;;;;;;6304419;22;20476;-46
2022/10/21 06:06:05;;;;;;;;;;;12.00;99.90;;;;;;6330291;22;19940;-47
2022/10/21 06:08:32;;;;;;;;;;;12.10;99.90;;;;;;6330522;22;19997;-47
2022/10/21 06:11:04;;;;;;;;;;;12.30;99.90;;;;;;6330634;22;19966;-46
2022/10/21 06:13:30;;;;;;;;;;;12.00;99.90;;;;;;6331498;22;19954;-47
2022/10/21 06:15:57;;;;;;;;;;;12.20;99.90;;;;;;6277656;22;19925;-48
2022/10/21 06:18:22;;;;;;;;;;;12.00;99.90;;;;;;6331915;22;19946;-46
2022/10/21 06:20:49;;;;;;;;;;;12.10;99.90;;;;;;6331748;22;19923;-47
2022/10/21 06:23:15;;;;;;;;;;;12.10;99.90;;;;;;6331271;22;19919;-50
2022/10/21 06:25:41;;;;;;;;;;;11.90;99.90;;;;;;6331365;22;19919;-47
2022/10/21 06:28:08;;;;;;;;;;;11.80;99.90;;;;;;6331223;22;19915;-47
2022/10/21 06:30:33;;;;;;;;;;;12.00;99.90;;;;;;6303859;22;19930;-46
2022/10/21 06:32:59;;;;;;;;;;;11.80;99.90;;;;;;6331872;22;19923;-47
2022/10/21 06:35:25;;;;;;;;;;;11.80;99.90;;;;;;6303623;22;20312;-46
2022/10/21 06:37:51;;;;;;;;;;;11.90;99.90;;;;;;6328886;22;19919;-47
2022/10/21 06:40:17;;;;;;;;;;;11.80;99.90;;;;;;6330465;22;19922;-48
2022/10/21 06:42:43;;;;;;;;;;;11.90;99.90;;;;;;6330503;22;19961;-46
2022/10/21 06:45:08;;;;;;;;;;;11.80;99.90;;;;;;6330880;22;19919;-48
2022/10/21 06:47:34;;;;;;;;;;;11.80;99.90;;;;;;6330321;22;20469;-46
2022/10/21 06:50:02;;;;;;;;;;;11.80;99.90;;;;;;6330816;22;19914;-46
2022/10/21 06:52:29;;;;;;;;;;;11.80;99.90;;;;;;6331772;22;19990;-47
2022/10/21 06:54:54;;;;;;;;;;;12.00;99.90;;;;;;6302975;22;20285;-47
2022/10/21 06:57:20;;;;;;;;;;;11.70;99.90;;;;;;6331445;22;19993;-47
2022/10/21 06:59:46;;;;;;;;;;;11.80;99.90;;;;;;6331283;22;20397;-46
2022/10/21 07:02:12;;;;;;;;;;;11.80;99.90;;;;;;6331124;22;20267;-48
2022/10/21 07:04:37;;;;;;;;;;;11.80;99.90;;;;;;6330972;22;20072;-46
2022/10/21 07:07:03;;;;;;;;;;;12.10;99.90;;;;;;6330768;22;20044;-47
2022/10/21 07:09:29;;;;;;;;;;;12.40;99.90;;;;;;6331766;22;19919;-47
2022/10/21 07:11:55;;;;;;;;;;;12.70;99.90;;;;;;6331081;22;20347;-49
2022/10/21 07:14:21;;;;;;;;;;;12.70;99.90;;;;;;6330728;22;19957;-49
2022/10/21 07:16:47;;;;;;;;;;;12.60;99.90;;;;;;6330911;22;20005;-51
2022/10/21 07:19:13;;;;;;;;;;;12.50;99.90;;;;;;6331279;22;19923;-47
2022/10/21 07:21:38;;;;;;;;;;;12.50;99.90;;;;;;6331429;22;19922;-50
2022/10/21 07:24:04;;;;;;;;;;;12.50;99.90;;;;;;6330566;22;19922;-50
2022/10/21 07:26:31;;;;;;;;;;;12.30;99.90;;;;;;6330801;22;19953;-48
2022/10/21 07:28:59;;;;;;;;;;;12.30;99.90;;;;;;6330547;22;19914;-49
2022/10/21 07:31:25;;;;;;;;;;;12.20;99.90;;;;;;6330237;22;19926;-47
2022/10/21 07:33:51;;;;;;;;;;;12.60;99.90;;;;;;6330648;22;19918;-51
2022/10/21 07:36:19;;;;;;;;;;;12.40;99.90;;;;;;6330523;22;20025;-50
2022/10/21 07:38:48;;;;;;;;;;;12.40;99.90;;;;;;6298538;22;19918;-49
2022/10/21 07:41:31;;;;;;;;;;;12.50;99.90;;;;;;6297046;22;19922;-47
2022/10/21 07:43:57;;;;;;;;;;;12.30;99.90;;;;;;6323375;22;19918;-47
2022/10/21 07:46:23;;;;;;;;;;;12.30;99.90;;;;;;6321521;22;20528;-48
2022/10/21 07:48:49;;;;;;;;;;;12.50;99.90;;;;;;6299305;22;19919;-47
2022/10/21 07:51:16;;;;;;;;;;;12.50;99.90;;;;;;6329726;22;19937;-47
2022/10/21 07:53:42;;;;;;;;;;;12.60;99.90;;;;;;6328947;22;19915;-48
2022/10/21 07:56:10;;;;;;;;;;;12.40;99.90;;;;;;6329293;22;19968;-48
2022/10/21 07:58:37;;;;;;;;;;;12.30;99.90;;;;;;6300974;22;19918;-47
2022/10/21 08:01:03;;;;;;;;;;;12.50;99.90;;;;;;6301306;22;19919;-47
2022/10/21 08:03:29;;;;;;;;;;;12.40;99.90;;;;;;6329433;22;20194;-49
2022/10/21 08:05:55;;;;;;;;;;;12.40;99.90;;;;;;6328991;22;19915;-47
2022/10/21 08:08:21;;;;;;;;;;;12.50;99.90;;;;;;6328874;22;19914;-48
2022/10/21 08:10:47;;;;;;;;;;;12.60;99.90;;;;;;6328747;22;19923;-47
2022/10/21 08:13:13;;;;;;;;;;;12.50;99.90;;;;;;6329313;22;19915;-48
2022/10/21 08:15:43;;;;;;;;;;;12.70;99.90;;;;;;6300687;22;19922;-49
2022/10/21 08:18:09;;;;;;;;;;;;;;;;;;6329429;22;19926;-47
2022/10/21 08:20:42;;;;;;;;;;;12.70;99.90;;;;;;6329228;22;19990;-47
2022/10/21 08:23:09;;;;;;;;;;;12.70;99.90;;;;;;6328973;22;19922;-47
2022/10/21 08:25:35;;;;;;;;;;;12.80;99.90;;;;;;6300932;22;19918;-47
2022/10/21 08:28:01;;;;;;;;;;;12.90;99.90;;;;;;6328880;22;19945;-47
2022/10/21 08:30:30;;;;;;;;;;;12.90;99.90;;;;;;6328283;22;19914;-47
2022/10/21 08:32:56;;;;;;;;;;;13.10;99.90;;;;;;6328769;22;19918;-47
2022/10/21 08:35:22;;;;;;;;;;;13.10;99.90;;;;;;6329242;22;20041;-47
2022/10/21 08:37:48;;;;;;;;;;;13.20;99.90;;;;;;6301241;22;19922;-47
2022/10/21 08:40:14;;;;;;;;;;;13.20;99.90;;;;;;6300939;22;19919;-48
2022/10/21 08:42:44;;;;;;;;;;;13.40;99.90;;;;;;6301407;22;20420;-47
2022/10/21 08:45:16;;;;;;;;;;;13.40;99.90;;;;;;6329162;22;19918;-46
2022/10/21 08:47:44;;;;;;;;;;;13.40;99.90;;;;;;6300173;22;20306;-48
2022/10/21 08:50:15;;;;;;;;;;;13.40;99.90;;;;;;6328991;22;20299;-46
2022/10/21 08:52:41;;;;;;;;;;;;;;;;;;6326389;22;19919;-47
2022/10/21 08:55:13;;;;;;;;;;;13.60;99.90;;;;;;6300312;22;19926;-49
2022/10/21 08:57:39;;;;;;;;;;;13.50;99.90;;;;;;6328810;22;19929;-50
2022/10/21 09:00:13;;;;;;;;;;;13.60;99.90;;;;;;6329277;22;20224;-47
2022/10/21 09:02:47;;;;;;;;;;;13.80;99.90;;;;;;6330452;22;19915;-49
2022/10/21 09:05:31;;;;;;;;;;;13.70;99.90;;;;;;6330649;22;20271;-49
2022/10/21 09:08:12;;;;;;;;;;;13.60;99.90;;;;;;6330225;22;19984;-48
2022/10/21 09:10:47;;;;;;;;;;;13.60;99.90;;;;;;6329842;22;20339;-47
2022/10/21 09:13:18;;;;;;;;;;;13.60;99.90;;;;;;6302169;22;19952;-47
2022/10/21 09:15:57;;;;;;;;;;;13.70;99.90;;;;;;6326954;22;20006;-48
2022/10/21 09:18:25;;;;;;;;;;;13.70;99.90;;;;;;6301593;22;19921;-50
2022/10/21 09:20:57;;;;;;;;;;;13.80;99.90;;;;;;6302585;22;19926;-48
2022/10/21 09:23:23;;;;;;;;;;;;;;;;;;6329338;22;19942;-49
2022/10/21 09:26:07;;;;;;;;;;;14.00;99.90;;;;;;6330595;22;19922;-49
2022/10/21 09:28:32;;;;;;;;;;;14.10;99.90;;;;;;6331518;22;19915;-50
2022/10/21 09:31:02;;;;;;;;;;;14.40;99.90;;;;;;6331508;22;20518;-48
2022/10/21 09:33:33;;;;;;;;;;;14.50;99.90;;;;;;6332461;22;19922;-50
2022/10/21 09:36:31;;;;;;;;;;;14.50;99.90;;;;;;6331625;22;19922;-49
2022/10/21 09:38:58;;;;;;;;;;;;;;;;;;6246565;22;19925;-49
2022/10/21 09:41:25;;;;;;;;;;;14.80;99.90;;;;;;6304815;22;19915;-51
2022/10/21 09:43:51;;;;;;;;;;;14.80;99.90;;;;;;6332451;22;19969;-48
2022/10/21 09:46:17;;;;;;;;;;;14.90;99.90;;;;;;6304395;22;19961;-49
2022/10/21 09:48:47;;;;;;;;;;;14.90;99.90;;;;;;6305025;22;19922;-50
2022/10/21 09:51:19;;;;;;;;;;;15.00;99.90;;;;;;6332390;22;19914;-50
2022/10/21 09:53:57;;;;;;;;;;;15.00;99.90;;;;;;6332542;22;19914;-50
2022/10/21 09:56:24;;;;;;;;;;;15.00;99.90;;;;;;6332678;22;20362;-51
2022/10/21 09:59:03;;;;;;;;;;;15.00;99.90;;;;;;6332527;22;19949;-49
2022/10/21 10:01:28;;;;;;;;;;;15.10;99.90;;;;;;6332057;22;19946;-48
2022/10/21 10:03:54;;;;;;;;;;;15.10;99.90;;;;;;6332258;22;20262;-50
2022/10/21 10:06:30;;;;;;;;;;;15.20;99.90;;;;;;6304848;22;19957;-49
2022/10/21 10:09:04;;;;;;;;;;;15.30;99.90;;;;;;6332313;22;19914;-51
2022/10/21 10:11:30;;;;;;;;;;;15.30;99.90;;;;;;6331760;22;19923;-48
2022/10/21 10:13:56;;;;;;;;;;;15.40;99.90;;;;;;6331332;22;20262;-51
2022/10/21 10:16:27;;;;;;;;;;;15.50;99.90;;;;;;6301883;22;19954;-50
2022/10/21 10:19:09;;;;;;;;;;;15.60;99.90;;;;;;6330953;22;19918;-50
2022/10/21 10:21:35;;;;;;;;;;;15.70;99.90;;;;;;6328806;22;20416;-52
2022/10/21 10:24:00;;;;;;;;;;;15.80;99.90;;;;;;6331677;22;19914;-52
2022/10/21 10:26:26;;;;;;;;;;;16.10;99.90;;;;;;6303947;22;19992;-51
2022/10/21 10:28:55;;;;;;;;;;;16.10;99.90;;;;;;6331322;22;20002;-53
2022/10/21 10:31:44;;;;;;;;;;;16.20;99.90;;;;;;6332691;22;19914;-55
2022/10/21 10:34:18;;;;;;;;;;;16.30;99.90;;;;;;6332492;22;19919;-54
2022/10/21 10:36:45;;;;;;;;;;;16.30;99.90;;;;;;6332303;22;20252;-51
2022/10/21 10:39:16;;;;;;;;;;;16.20;99.90;;;;;;6331634;22;20574;-54
2022/10/21 10:41:45;;;;;;;;;;;16.10;99.90;;;;;;6303886;22;19993;-48
2022/10/21 10:44:25;;;;;;;;;;;16.10;99.90;;;;;;6332263;22;19914;-52
2022/10/21 10:46:56;;;;;;;;;;;16.10;99.90;;;;;;6332450;22;19914;-53
2022/10/21 10:49:22;;;;;;;;;;;16.10;99.90;;;;;;6332855;22;19918;-52
2022/10/21 10:52:08;;;;;;;;;;;16.10;99.90;;;;;;6332853;22;19919;-53
2022/10/21 10:54:34;;;;;;;;;;;16.10;99.90;;;;;;6305341;22;20328;-53
2022/10/21 10:57:35;;;;;;;;;;;16.10;99.90;;;;;;6332650;22;20227;-53
2022/10/21 11:00:17;;;;;;;;;;;16.10;99.90;;;;;;6175084;23;20428;-50
2022/10/21 11:02:43;;;;;;;;;;;16.10;99.90;;;;;;6316204;22;19918;-51
2022/10/21 11:05:15;;;;;;;;;;;16.00;99.90;;;;;;6332040;22;19925;-51
2022/10/21 11:07:43;;;;;;;;;;;16.10;99.90;;;;;;6304396;22;20201;-52
2022/10/21 11:10:21;;;;;;;;;;;16.00;99.90;;;;;;6332182;22;19965;-53
2022/10/21 11:12:47;;;;;;;;;;;16.00;99.90;;;;;;6304371;22;19919;-49
2022/10/21 11:15:13;;;;;;;;;;;16.10;99.90;;;;;;6331205;22;20379;-52
2022/10/21 11:17:40;;;;;;;;;;;16.10;99.90;;;;;;6331738;22;19992;-48
2022/10/21 11:20:05;;;;;;;;;;;16.30;99.90;;;;;;6278518;22;19979;-50
2022/10/21 11:22:51;;;;;;;;;;;16.20;99.90;;;;;;6331978;22;20478;-50
2022/10/21 11:25:23;;;;;;;;;;;16.20;99.90;;;;;;6329847;22;19922;-49
2022/10/21 11:27:49;;;;;;;;;;;16.30;99.90;;;;;;6331793;22;19918;-50
2022/10/21 11:30:14;;;;;;;;;;;16.30;99.90;;;;;;6303363;22;19918;-54
2022/10/21 11:32:49;;;;;;;;;;;16.30;99.90;;;;;;6331773;22;19915;-49
2022/10/21 11:35:17;;;;;;;;;;;16.30;99.90;;;;;;6329905;22;20001;-52
2022/10/21 11:37:43;;;;;;;;;;;16.30;99.90;;;;;;6303253;22;19922;-50
2022/10/21 11:40:09;;;;;;;;;;;16.40;99.90;;;;;;6303677;22;19915;-49
2022/10/21 11:42:41;;;;;;;;;;;16.40;99.90;;;;;;6331643;22;20343;-53
2022/10/21 11:45:19;;;;;;;;;;;16.40;99.90;;;;;;6303258;22;19989;-54
2022/10/21 11:47:48;;;;;;;;;;;16.40;99.90;;;;;;6331845;22;19997;-51
2022/10/21 11:50:29;;;;;;;;;;;16.40;99.90;;;;;;6331382;22;19914;-49
2022/10/21 11:53:10;;;;;;;;;;;16.50;99.90;;;;;;6331883;22;19918;-51
2022/10/21 11:55:37;;;;;;;;;;;16.50;99.90;;;;;;6331814;22;20017;-51
2022/10/21 11:58:17;;;;;;;;;;;16.50;99.90;;;;;;6331660;22;19914;-53
2022/10/21 12:00:43;;;;;;;;;;;16.50;99.90;;;;;;6331828;22;19921;-49
2022/10/21 12:03:09;;;;;;;;;;;16.50;99.90;;;;;;6331707;22;19918;-53
2022/10/21 12:05:36;;;;;;;;;;;16.40;99.90;;;;;;6330717;22;20306;-50
2022/10/21 12:08:23;;;;;;;;;;;16.40;99.90;;;;;;6331344;22;19944;-52
2022/10/21 12:10:57;;;;;;;;;;;16.40;99.90;;;;;;6303793;22;20443;-49
2022/10/21 12:13:28;;;;;;;;;;;16.40;99.90;;;;;;6331697;22;19919;-49
2022/10/21 12:15:57;;;;;;;;;;;16.30;99.90;;;;;;6300160;22;19919;-50
2022/10/21 12:18:24;;;;;;;;;;;16.30;99.90;;;;;;6300097;22;19926;-49
2022/10/21 12:20:51;;;;;;;;;;;16.30;99.90;;;;;;6299327;22;20005;-49
2022/10/21 12:23:19;;;;;;;;;;;16.40;99.90;;;;;;6300297;22;19930;-51
2022/10/21 12:26:00;;;;;;;;;;;16.30;99.90;;;;;;6300340;22;20197;-53
2022/10/21 12:28:46;;;;;;;;;;;16.30;99.90;;;;;;6299833;22;20395;-49
2022/10/21 12:31:12;;;;;;;;;;;16.30;99.90;;;;;;6299047;22;20017;-54
2022/10/21 12:33:40;;;;;;;;;;;16.20;99.90;;;;;;6300325;22;19942;-51
2022/10/21 12:36:21;;;;;;;;;;;16.30;99.90;;;;;;6298786;22;19926;-49
2022/10/21 12:38:51;;;;;;;;;;;16.30;99.90;;;;;;6299376;22;19918;-52
2022/10/21 12:41:23;;;;;;;;;;;16.30;99.90;;;;;;6299009;22;20296;-49
2022/10/21 12:44:02;;;;;;;;;;;16.30;99.90;;;;;;6299342;22;19918;-51
2022/10/21 12:46:28;;;;;;;;;;;16.30;99.90;;;;;;6298740;22;19919;-54
2022/10/21 12:48:54;;;;;;;;;;;16.30;99.90;;;;;;6299025;22;20351;-50
2022/10/21 12:51:28;;;;;;;;;;;16.30;99.90;;;;;;6270833;22;20326;-50
2022/10/21 12:54:03;;;;;;;;;;;16.30;99.90;;;;;;6298484;22;19949;-51
2022/10/21 12:56:42;;;;;;;;;;;16.30;99.90;;;;;;6271838;22;19923;-52
2022/10/21 12:59:24;;;;;;;;;;;16.20;99.90;;;;;;6300080;22;19950;-54
2022/10/21 13:02:06;;;;;;;;;;;16.30;99.90;;;;;;6271345;22;19918;-49
2022/10/21 13:04:32;;;;;;;;;;;16.20;99.90;;;;;;6270597;22;20078;-53
2022/10/21 13:07:01;;;;;;;;;;;16.30;99.90;;;;;;6298112;22;20509;-53
2022/10/21 13:09:29;;;;;;;;;;;16.20;99.90;;;;;;6298402;22;20469;-52
2022/10/21 13:12:03;;;;;;;;;;;16.30;99.90;;;;;;6298136;22;19919;-48
2022/10/21 13:14:37;;;;;;;;;;;16.30;99.90;;;;;;6312654;22;19918;-52
2022/10/21 13:17:21;;;;;;;;;;;16.30;99.90;;;;;;6330335;22;19919;-52
2022/10/21 13:19:54;;;;;;;;;;;16.20;99.90;;;;;;6331126;22;20014;-51
2022/10/21 13:22:21;;;;;;;;;;;16.20;99.90;;;;;;6303339;22;20267;-50
2022/10/21 13:24:47;;;;;;;;;;;15.80;99.90;;;;;;6302908;22;19918;-49
2022/10/21 13:27:28;;;;;;;;;;;16.30;99.90;;;;;;6331257;22;19984;-51
2022/10/21 13:29:54;;;;;;;;;;;16.30;99.90;;;;;;6330520;22;19918;-52
2022/10/21 13:32:20;;;;;;;;;;;16.30;99.90;;;;;;6330732;22;19943;-53
2022/10/21 13:35:05;;;;;;;;;;;16.30;99.90;;;;;;6330779;22;20330;-50
2022/10/21 13:37:39;;;;;;;;;;;16.30;99.90;;;;;;6330843;22;19923;-50
2022/10/21 13:40:06;;;;;;;;;;;16.30;99.90;;;;;;6330768;22;20233;-50
2022/10/21 13:42:35;;;;;;;;;;;16.30;99.90;;;;;;6331318;22;19954;-52
2022/10/21 13:45:13;;;;;;;;;;;16.30;99.90;;;;;;6277034;22;20021;-51
2022/10/21 13:47:39;;;;;;;;;;;16.30;99.90;;;;;;6333219;22;20009;-51
2022/10/21 13:50:34;;;;;;;;;;;16.30;99.90;;;;;;6328768;22;19972;-53
2022/10/21 13:53:01;;;;;;;;;;;16.30;99.90;;;;;;6298866;22;19919;-54
2022/10/21 13:55:27;;;;;;;;;;;16.40;99.90;;;;;;6332578;22;19919;-51
2022/10/21 13:57:53;;;;;;;;;;;16.40;99.90;;;;;;6333253;22;19915;-52
2022/10/21 14:00:21;;;;;;;;;;;16.40;99.90;;;;;;6332851;22;19914;-50
2022/10/21 14:02:54;;;;;;;;;;;16.40;99.90;;;;;;6305018;22;19915;-49
2022/10/21 14:05:49;;;;;;;;;;;16.40;99.90;;;;;;6301079;22;19991;-49
2022/10/21 14:08:24;;;;;;;;;;;16.40;99.90;;;;;;6298864;22;19919;-52
2022/10/21 14:10:50;;;;;;;;;;;16.50;99.90;;;;;;6332217;22;19968;-53
2022/10/21 14:13:19;;;;;;;;;;;16.50;99.90;;;;;;6331991;22;19915;-50
2022/10/21 14:15:47;;;;;;;;;;;16.40;99.90;;;;;;6330828;22;19922;-54
2022/10/21 14:18:33;;;;;;;;;;;16.50;99.90;;;;;;6302604;22;19915;-51
2022/10/21 14:20:59;;;;;;;;;;;16.50;99.90;;;;;;6328213;22;20328;-52
2022/10/21 14:23:25;;;;;;;;;;;16.30;99.90;;;;;;6328661;22;20528;-49
2022/10/21 14:25:52;;;;;;;;;;;16.50;99.90;;;;;;6331761;22;19915;-52
2022/10/21 14:28:19;;;;;;;;;;;16.50;99.90;;;;;;6333211;22;19918;-54
2022/10/21 14:30:46;;;;;;;;;;;16.50;99.90;;;;;;6303975;22;19919;-52
2022/10/21 14:33:19;;;;;;;;;;;16.50;99.90;;;;;;6332497;22;19994;-52